Terminal Aerodrome Forecast
Issued by NWS

Home | Current Version | Previous Version | Text Only | Print | Product List | Glossary Off
Versions: 1 2 3 4 5 6 7 8 9 10 11 12 13 14 15 16 17 18 19 20

733
FTUS43 KMPX 170202 AAC
TAFRWF
TAF AMD
KRWF 170202Z 1702/1724 06009KT 5SM BR SCT003 OVC009
      TEMPO 1704/1706 2SM -SHRA BR OVC005
     FM170700 30015G23KT 3SM -SHRA BR OVC004
     FM171400 31016G25KT 6SM BR VCSH OVC008
     FM171800 31017G26KT P6SM OVC015=

USA.gov is the U.S. government's official web portal to all federal, state and local government web resources and services.